Time;durP1;ratioP1;P1;durP2;ratioP2;P2;SDS_P1;SDS_P2;PMS_P1;PMS_P2;Temp;Humidity;BMP_temperature;BMP_pressure;BME280_temperature;BME280_humidity;BME280_pressure;Samples;Min_cycle;Max_cycle;Signal;HPM_P1;HPM_P2
2022/05/08 00:00:42;;;;;;;7.70;5.70;;;;;;;17.51;50.81;101125.31;4185451;28;20052;-54
2022/05/08 00:02:45;;;;;;;7.32;5.25;;;;;;;17.47;51.21;101113.09;4188057;28;20445;-53
2022/05/08 00:04:51;;;;;;;9.35;5.28;;;;;;;17.50;51.09;101119.19;4192651;28;20037;-53
2022/05/08 00:06:54;;;;;;;8.77;5.60;;;;;;;17.42;51.10;101119.22;4184102;28;20044;-53
2022/05/08 00:09:00;;;;;;;8.13;5.07;;;;;;;17.42;51.11;101127.13;4185991;28;20376;-54
2022/05/08 00:11:03;;;;;;;6.78;5.18;;;;;;;17.41;51.15;101120.09;4187720;28;20033;-55
2022/05/08 00:13:06;;;;;;;7.25;5.25;;;;;;;17.37;51.38;101120.13;4190425;28;20116;-54
2022/05/08 00:15:09;;;;;;;7.32;5.07;;;;;;;17.32;51.32;101120.16;4191360;28;20032;-55
2022/05/08 00:17:13;;;;;;;9.77;5.10;;;;;;;17.31;51.66;101107.00;4192867;28;20115;-54
2022/05/08 00:19:16;;;;;;;14.27;5.53;;;;;;;17.27;51.49;101119.28;4182823;28;20119;-53
2022/05/08 00:21:19;;;;;;;10.07;5.80;;;;;;;17.37;51.29;101118.34;4184229;28;20398;-54
2022/05/08 00:23:22;;;;;;;8.45;5.20;;;;;;;17.30;51.50;101127.13;4188891;28;20116;-53
2022/05/08 00:25:27;;;;;;;8.60;6.00;;;;;;;17.34;51.35;101118.38;4191076;28;20132;-54
2022/05/08 00:27:30;;;;;;;8.38;5.88;;;;;;;17.30;51.15;101119.25;4193524;28;20032;-54
2022/05/08 00:29:33;;;;;;;12.05;6.45;;;;;;;17.16;51.96;101118.44;4185167;28;20060;-54
2022/05/08 00:31:36;;;;;;;11.02;6.07;;;;;;;17.08;51.70;101116.72;4190494;28;20036;-54
2022/05/08 00:33:39;;;;;;;9.52;6.43;;;;;;;17.00;52.31;101114.97;4190764;28;20048;-55
2022/05/08 00:35:42;;;;;;;8.00;5.80;;;;;;;16.93;52.35;101117.59;4188037;28;20056;-54
2022/05/08 00:37:45;;;;;;;7.82;6.32;;;;;;;16.98;52.09;101121.97;4190158;28;20048;-53
2022/05/08 00:39:48;;;;;;;9.90;6.50;;;;;;;16.97;51.78;101114.94;4187820;28;20028;-55
2022/05/08 00:41:55;;;;;;;9.60;6.53;;;;;;;17.05;51.66;101118.44;4189550;28;20032;-53
2022/05/08 00:43:57;;;;;;;9.55;6.82;;;;;;;16.96;52.18;101116.72;4189046;28;20039;-53
2022/05/08 00:46:02;;;;;;;9.13;6.20;;;;;;;16.92;51.76;101121.13;4188202;28;20089;-53
2022/05/08 00:48:06;;;;;;;9.13;6.40;;;;;;;16.91;52.30;101126.38;4187832;28;20063;-55
2022/05/08 00:50:09;;;;;;;9.80;6.70;;;;;;;16.85;52.10;101121.97;4190531;28;20045;-54
2022/05/08 00:52:13;;;;;;;10.38;7.70;;;;;;;16.78;52.37;101124.56;4183239;28;20037;-54
2022/05/08 00:54:17;;;;;;;10.98;6.50;;;;;;;16.86;52.50;101128.94;4189334;28;20037;-55
2022/05/08 00:56:21;;;;;;;9.07;6.50;;;;;;;16.71;52.50;101126.34;4186248;28;20498;-54
2022/05/08 00:58:26;;;;;;;9.13;6.50;;;;;;;16.73;52.33;101122.84;4188975;28;20056;-54
2022/05/08 01:00:28;;;;;;;10.05;6.57;;;;;;;16.69;52.90;101123.72;4187272;28;20452;-54
2022/05/08 01:02:31;;;;;;;9.15;6.57;;;;;;;16.65;52.90;101124.59;4183602;28;20388;-54
2022/05/08 01:04:34;;;;;;;8.43;7.22;;;;;;;16.61;53.24;101124.59;4190436;28;20033;-53
2022/05/08 01:06:37;;;;;;;8.13;6.68;;;;;;;16.61;53.31;101117.59;4185936;28;20072;-55
2022/05/08 01:08:42;;;;;;;9.98;6.75;;;;;;;16.59;53.24;101119.34;4182581;28;20127;-55
2022/05/08 01:10:45;;;;;;;7.75;6.68;;;;;;;16.65;53.14;101113.22;4189994;28;20405;-53
2022/05/08 01:12:48;;;;;;;7.70;6.45;;;;;;;16.62;53.41;101121.97;4191421;28;20045;-53
2022/05/08 01:15:18;;;;;;;9.15;7.10;;;;;;;16.52;53.43;101123.72;4184321;28;20040;-53
2022/05/08 01:17:21;;;;;;;8.88;6.70;;;;;;;16.47;53.30;101114.09;4180322;28;20473;-53
2022/05/08 01:19:24;;;;;;;9.18;6.88;;;;;;;16.56;53.69;101121.97;4184781;28;20037;-55
2022/05/08 01:21:38;;;;;;;9.82;7.07;;;;;;;16.54;53.32;101121.09;4188551;28;20131;-55
2022/05/08 01:23:41;;;;;;;9.27;7.05;;;;;;;16.48;53.37;101111.47;4196541;28;20044;-55
2022/05/08 01:25:50;;;;;;;8.50;7.03;;;;;;;16.42;54.08;101118.47;4188324;28;20040;-54
2022/05/08 01:27:52;;;;;;;11.27;7.78;;;;;;;16.47;53.97;101120.22;4180286;28;20037;-54
2022/05/08 01:29:56;;;;;;;8.73;6.97;;;;;;;16.41;53.90;101117.56;4188609;28;20055;-55
2022/05/08 01:31:59;;;;;;;9.90;7.60;;;;;;;16.37;53.74;101121.97;4189377;28;20094;-54
2022/05/08 01:34:03;;;;;;;10.57;6.70;;;;;;;16.37;54.25;101118.47;4192350;28;20032;-53
2022/05/08 01:36:06;;;;;;;11.25;8.10;;;;;;;16.37;54.12;101114.09;4189827;28;20473;-55
2022/05/08 01:38:12;;;;;;;10.05;6.95;;;;;;;16.37;54.33;101116.72;4192741;28;20044;-54
2022/05/08 01:40:17;;;;;;;11.98;7.32;;;;;;;16.36;54.07;101112.31;4193538;28;20036;-53
2022/05/08 01:42:19;;;;;;;9.13;7.20;;;;;;;16.28;54.43;101118.44;4179369;28;20505;-55
2022/05/08 01:44:24;;;;;;;10.07;7.65;;;;;;;16.29;54.74;101115.81;4187695;28;20588;-55
2022/05/08 01:46:26;;;;;;;9.50;7.45;;;;;;;16.32;54.25;101118.44;4190590;28;20041;-54
2022/05/08 01:48:30;;;;;;;9.88;7.53;;;;;;;16.33;54.46;101122.81;4191875;28;20043;-55
2022/05/08 01:50:33;;;;;;;9.98;7.70;;;;;;;16.28;54.06;101119.34;4187197;28;20037;-55
2022/05/08 01:52:36;;;;;;;11.18;8.13;;;;;;;16.22;54.60;101119.31;4188563;28;20588;-54
2022/05/08 01:54:40;;;;;;;12.10;7.55;;;;;;;16.14;54.80;101113.19;4186107;28;20045;-53
2022/05/08 01:56:43;;;;;;;10.57;8.52;;;;;;;16.14;54.70;101116.69;4179914;28;20037;-54
2022/05/08 01:58:47;;;;;;;12.75;8.23;;;;;;;16.16;55.04;101114.06;4186373;28;20071;-54
2022/05/08 02:00:51;;;;;;;;;;;;;;;16.07;55.53;101124.53;4184111;28;20543;-55
2022/05/08 02:02:54;;;;;;;12.30;7.80;;;;;;;16.04;54.77;101121.03;4187505;28;19927;-54
2022/05/08 02:04:57;;;;;;;9.85;8.00;;;;;;;16.04;54.82;101117.53;4187097;28;20041;-55
2022/05/08 02:07:00;;;;;;;10.93;7.75;;;;;;;16.04;55.10;101121.03;4194969;28;20050;-54
2022/05/08 02:09:03;;;;;;;14.80;8.80;;;;;;;16.11;55.54;101118.44;4190779;28;20135;-55
2022/05/08 02:11:07;;;;;;;10.77;8.02;;;;;;;16.15;55.38;101117.53;4180996;28;20398;-55
2022/05/08 02:13:10;;;;;;;11.20;8.52;;;;;;;16.02;54.91;101117.53;4186031;28;20064;-55
2022/05/08 02:15:14;;;;;;;10.52;8.73;;;;;;;16.00;55.70;101121.91;4186586;28;20055;-54
2022/05/08 02:17:18;;;;;;;9.80;7.80;;;;;;;15.91;55.28;101118.38;4186841;28;20068;-55
2022/05/08 02:19:21;;;;;;;11.38;8.65;;;;;;;15.87;55.87;101125.34;4181741;28;20291;-54
2022/05/08 02:21:24;;;;;;;13.45;8.40;;;;;;;15.93;55.82;101117.53;4172134;28;20056;-55
2022/05/08 02:23:27;;;;;;;13.63;9.13;;;;;;;15.93;56.27;101117.53;4191010;28;20048;-54
2022/05/08 02:25:31;;;;;;;10.48;9.32;;;;;;;15.83;56.24;101121.84;4185943;28;20043;-55
2022/05/08 02:27:39;;;;;;;13.82;9.40;;;;;;;15.82;55.96;101122.72;4188994;28;20406;-54
2022/05/08 02:29:42;;;;;;;11.38;8.35;;;;;;;15.84;56.23;101122.72;4187771;28;20550;-54
2022/05/08 02:31:45;;;;;;;11.10;8.82;;;;;;;15.85;56.35;101119.22;4187039;28;20131;-55
2022/05/08 02:33:48;;;;;;;11.38;8.73;;;;;;;15.83;56.79;101115.75;4187030;28;20127;-55
2022/05/08 02:35:52;;;;;;;11.02;9.10;;;;;;;15.73;57.21;101119.19;4188434;28;20041;-54
2022/05/08 02:37:56;;;;;;;10.93;8.90;;;;;;;15.67;57.55;101120.03;4194183;28;20565;-54
2022/05/08 02:39:59;;;;;;;13.90;9.57;;;;;;;15.66;57.41;101118.25;4185927;28;20043;-54
2022/05/08 02:42:03;;;;;;;12.98;10.20;;;;;;;15.73;57.39;101116.56;4188109;28;20029;-54
2022/05/08 02:44:07;;;;;;;12.13;10.10;;;;;;;15.73;56.91;101124.41;4183704;28;20052;-55
2022/05/08 02:46:10;;;;;;;11.60;9.85;;;;;;;15.64;57.53;101122.63;4186930;28;20032;-54
2022/05/08 02:48:13;;;;;;;13.88;10.00;;;;;;;15.61;57.65;101119.97;4188948;28;20032;-53
2022/05/08 02:50:17;;;;;;;12.10;9.48;;;;;;;15.56;57.76;101126.97;4181173;28;20041;-53
2022/05/08 02:52:19;;;;;;;12.35;9.82;;;;;;;15.60;57.65;101126.97;4180794;28;20444;-54
2022/05/08 02:54:22;;;;;;;13.68;9.65;;;;;;;15.61;57.97;101125.22;4178484;28;20045;-53
2022/05/08 02:58:44;;;;;;;11.80;9.38;;;;;;;15.61;57.67;101115.63;4192594;28;20040;-55
2022/05/08 03:00:49;;;;;;;10.80;9.32;;;;;;;15.56;57.56;101122.59;4189886;28;20742;-55
2022/05/08 03:02:52;;;;;;;14.32;10.48;;;;;;;15.53;57.45;101119.94;4187499;28;20045;-53
2022/05/08 03:04:55;;;;;;;13.00;9.20;;;;;;;15.49;57.63;101128.66;4186182;28;20067;-54
2022/05/08 03:06:58;;;;;;;12.07;10.15;;;;;;;15.50;58.42;101123.44;4188893;28;20040;-54
2022/05/08 03:09:00;;;;;;;13.43;10.02;;;;;;;15.52;57.95;101126.94;4179400;28;20395;-53
2022/05/08 03:13:24;;;;;;;12.65;10.07;;;;;;;15.43;58.33;101124.25;4187552;28;20110;-53
2022/05/08 03:15:26;;;;;;;11.35;9.35;;;;;;;15.47;58.46;101122.56;4181350;28;20041;-54
2022/05/08 03:17:31;;;;;;;13.07;10.50;;;;;;;15.52;58.94;101128.66;4187374;28;20108;-53
2022/05/08 03:19:35;;;;;;;13.80;9.80;;;;;;;15.45;58.35;101129.50;4180497;28;20571;-54
2022/05/08 03:21:38;;;;;;;12.15;10.73;;;;;;;15.48;58.58;101140.03;4188436;28;20063;-53
2022/05/08 03:23:41;;;;;;;10.27;8.95;;;;;;;15.40;58.65;101132.13;4193323;28;20044;-55
2022/05/08 03:25:44;;;;;;;12.73;10.10;;;;;;;15.42;58.64;101129.50;4178649;28;20041;-55
2022/05/08 03:27:47;;;;;;;11.88;10.02;;;;;;;15.42;58.45;101134.75;4177309;28;20036;-53
2022/05/08 03:29:50;;;;;;;14.05;10.85;;;;;;;15.39;58.19;101135.63;4188346;28;20038;-54
2022/05/08 03:31:53;;;;;;;15.40;10.98;;;;;;;15.38;59.15;101135.63;4189110;28;20033;-53
2022/05/08 03:33:58;;;;;;;14.53;10.07;;;;;;;15.28;59.60;101135.53;4191332;28;20056;-55
2022/05/08 03:36:01;;;;;;;13.02;10.88;;;;;;;15.27;59.14;101133.78;4186420;28;20048;-54
2022/05/08 03:38:04;;;;;;;11.85;9.73;;;;;;;15.23;58.81;101137.28;4179807;28;20041;-53
2022/05/08 03:40:08;;;;;;;12.15;9.85;;;;;;;15.27;59.19;101136.41;4192424;28;20043;-55
2022/05/08 03:42:12;;;;;;;11.77;10.32;;;;;;;15.24;59.00;101136.38;4187879;28;20033;-54
2022/05/08 03:44:15;;;;;;;12.38;10.48;;;;;;;15.22;59.09;101140.75;4183915;28;20044;-55
2022/05/08 03:46:18;;;;;;;12.38;10.00;;;;;;;15.25;59.07;101138.16;4188575;28;20035;-55
2022/05/08 03:48:21;;;;;;;18.45;11.07;;;;;;;15.25;59.21;101143.38;4174149;28;20486;-54
2022/05/08 03:50:26;;;;;;;12.63;10.65;;;;;;;15.35;59.20;101139.97;4191395;28;20123;-55
2022/05/08 03:52:29;;;;;;;13.68;11.35;;;;;;;15.25;59.37;101147.75;4193441;28;20048;-55
2022/05/08 03:54:32;;;;;;;13.57;10.13;;;;;;;15.21;59.08;101144.22;4179953;28;20410;-54
2022/05/08 03:56:35;;;;;;;14.10;10.68;;;;;;;15.22;59.37;101145.13;4179648;28;20033;-55
2022/05/08 03:58:38;;;;;;;13.63;10.43;;;;;;;15.18;59.51;101139.84;4191602;28;20044;-53
2022/05/08 04:00:42;;;;;;;15.00;10.43;;;;;;;15.11;60.21;101151.19;4188201;28;20032;-55
2022/05/08 04:02:45;;;;;;;13.63;10.52;;;;;;;15.15;60.04;101142.44;4190312;28;20036;-54
2022/05/08 04:04:48;;;;;;;13.07;10.95;;;;;;;15.14;59.61;101145.06;4185919;28;20040;-55
2022/05/08 04:06:53;;;;;;;14.57;10.35;;;;;;;15.10;60.19;101145.91;4193458;28;20040;-55
2022/05/08 04:08:56;;;;;;;12.95;10.38;;;;;;;15.09;59.72;101152.03;4189475;28;20041;-55
2022/05/08 04:10:59;;;;;;;13.15;10.73;;;;;;;15.06;60.73;101149.41;4193158;28;20132;-54
2022/05/08 04:13:01;;;;;;;12.52;10.10;;;;;;;15.01;60.40;101150.22;4190416;28;20037;-55
2022/05/08 04:15:06;;;;;;;12.68;10.25;;;;;;;15.05;60.15;101160.72;4184886;28;20033;-55
2022/05/08 04:17:29;;;;;;;12.68;9.80;;;;;;;15.07;59.94;101159.88;4166408;28;20041;-54
2022/05/08 04:19:33;;;;;;;14.98;10.50;;;;;;;15.00;60.57;101158.06;4187692;28;20129;-55
2022/05/08 04:21:36;;;;;;;10.80;8.27;;;;;;;15.04;60.09;101159.84;4186514;28;20037;-54
2022/05/08 04:26:00;;;;;;;14.05;9.60;;;;;;;15.04;60.20;101159.84;4191018;28;20498;-55
2022/05/08 04:28:04;;;;;;;12.88;9.40;;;;;;;15.09;60.84;101172.97;4184142;28;20491;-56
2022/05/08 04:30:07;;;;;;;16.15;10.65;;;;;;;15.13;61.35;101173.00;4188411;28;20052;-55
2022/05/08 04:32:10;;;;;;;11.25;9.38;;;;;;;15.11;60.99;101171.22;4184706;28;20075;-54
2022/05/08 04:34:13;;;;;;;10.98;9.63;;;;;;;15.17;61.07;101171.28;4189236;28;20499;-55
2022/05/08 04:36:17;;;;;;;14.70;10.77;;;;;;;15.21;60.32;101175.66;4190987;28;20098;-55
2022/05/08 04:38:19;;;;;;;12.15;9.60;;;;;;;15.18;60.29;101178.28;4171229;28;20410;-54
2022/05/08 04:40:24;;;;;;;13.07;10.38;;;;;;;15.19;60.62;101185.28;4190312;28;20406;-54
2022/05/08 04:42:27;;;;;;;12.30;10.25;;;;;;;15.22;60.65;101179.19;4187415;28;20495;-54
2022/05/08 04:44:30;;;;;;;12.05;10.32;;;;;;;15.15;60.22;101180.88;4189916;28;20052;-53
2022/05/08 04:46:33;;;;;;;14.38;10.35;;;;;;;15.11;60.58;101184.31;4188080;28;20059;-54
2022/05/08 04:48:38;;;;;;;17.08;10.63;;;;;;;15.15;59.96;101186.97;4187876;28;20039;-55
2022/05/08 04:50:41;;;;;;;13.07;10.48;;;;;;;15.13;60.13;101190.47;4190493;28;20052;-55
2022/05/08 04:52:44;;;;;;;13.25;10.70;;;;;;;15.21;60.39;101191.38;4199151;28;20452;-53
2022/05/08 04:54:46;;;;;;;11.95;9.80;;;;;;;15.11;60.22;101186.94;4189620;28;20491;-53
2022/05/08 04:56:52;;;;;;;13.55;10.75;;;;;;;15.12;60.21;101193.94;4187195;28;20040;-53
2022/05/08 04:58:54;;;;;;;12.20;10.23;;;;;;;15.06;60.58;101193.91;4184238;28;20402;-54
2022/05/08 05:00:58;;;;;;;19.77;10.85;;;;;;;15.03;60.89;101193.88;4188100;28;20055;-53
2022/05/08 05:03:03;;;;;;;13.07;9.85;;;;;;;15.03;61.35;101194.75;4190606;28;20037;-53
2022/05/08 05:05:10;;;;;;;12.98;10.05;;;;;;;15.02;60.71;101198.22;4194415;28;20051;-54
2022/05/08 05:07:14;;;;;;;12.45;11.00;;;;;;;15.08;60.54;101208.75;4184379;28;20033;-54
2022/05/08 05:09:16;;;;;;;11.73;10.15;;;;;;;14.98;60.91;101202.59;4180216;28;20043;-53
2022/05/08 05:11:20;;;;;;;11.10;9.90;;;;;;;14.96;61.46;101209.53;4186574;28;20079;-53
2022/05/08 05:13:24;;;;;;;12.38;10.25;;;;;;;14.95;61.41;101213.03;4186038;28;20049;-54
2022/05/08 05:15:29;;;;;;;11.18;9.98;;;;;;;14.94;60.88;101208.66;4193768;28;20116;-53
2022/05/08 05:17:32;;;;;;;12.95;10.13;;;;;;;15.01;61.11;101214.81;4183153;28;20033;-52
2022/05/08 05:19:35;;;;;;;14.40;10.95;;;;;;;15.00;60.77;101211.31;4189990;28;20132;-54
2022/05/08 05:21:38;;;;;;;14.98;10.45;;;;;;;15.03;61.65;101201.75;4183627;28;20045;-55
2022/05/08 05:23:42;;;;;;;14.02;10.55;;;;;;;14.98;61.45;101215.66;4186258;28;20111;-54
2022/05/08 05:25:45;;;;;;;12.52;10.25;;;;;;;14.91;61.70;101208.63;4188349;28;20037;-54
2022/05/08 05:27:47;;;;;;;12.68;10.35;;;;;;;15.00;61.63;101206.06;4184746;28;20401;-53
2022/05/08 05:29:52;;;;;;;13.57;10.85;;;;;;;15.00;61.69;101211.31;4189377;28;20056;-53
2022/05/08 05:31:55;;;;;;;13.57;10.57;;;;;;;14.99;61.11;101214.78;4188724;28;20037;-54
2022/05/08 05:33:58;;;;;;;10.77;8.90;;;;;;;15.04;60.77;101206.09;4172104;28;20037;-54
2022/05/08 05:36:01;;;;;;;11.93;10.00;;;;;;;14.99;61.13;101209.53;4189182;28;20029;-54
2022/05/08 05:38:04;;;;;;;13.02;9.90;;;;;;;15.00;61.23;101211.31;4188002;28;20470;-54
2022/05/08 05:40:08;;;;;;;14.55;9.35;;;;;;;14.95;61.13;101213.03;4183503;28;20124;-54
2022/05/08 05:42:13;;;;;;;12.70;10.15;;;;;;;14.86;61.10;101210.31;4190073;28;20453;-53
2022/05/08 05:44:16;;;;;;;11.20;10.00;;;;;;;14.89;61.70;101212.94;4193450;28;20064;-55
2022/05/08 05:48:40;;;;;;;14.27;10.20;;;;;;;14.77;61.90;101211.13;4180793;28;20033;-54
2022/05/08 05:50:43;;;;;;;11.77;9.75;;;;;;;14.87;61.66;101219.06;4180516;28;20037;-53
2022/05/08 05:52:46;;;;;;;14.18;10.63;;;;;;;14.95;61.97;101225.22;4188107;28;20043;-53
2022/05/08 05:54:49;;;;;;;11.75;9.40;;;;;;;14.92;61.22;101218.25;4187403;28;20048;-53
2022/05/08 05:56:55;;;;;;;14.50;10.13;;;;;;;14.92;61.44;101223.47;4189157;28;20041;-54
2022/05/08 05:58:58;;;;;;;15.93;10.43;;;;;;;14.94;61.46;101224.34;4188537;28;20036;-54
2022/05/08 06:01:01;;;;;;;11.70;9.95;;;;;;;15.01;61.79;101215.69;4181499;28;20041;-53
2022/05/08 06:03:05;;;;;;;12.98;9.75;;;;;;;15.18;60.67;101226.28;4188504;28;20095;-54
2022/05/08 06:05:09;;;;;;;12.13;10.18;;;;;;;15.17;60.37;101223.66;4186906;28;20040;-55
2022/05/08 06:07:12;;;;;;;15.20;9.65;;;;;;;15.30;60.83;101228.13;4188333;28;20041;-54
2022/05/08 06:09:15;;;;;;;11.88;9.85;;;;;;;15.26;60.18;101230.69;4181370;28;20073;-54
2022/05/08 06:11:18;;;;;;;12.38;9.38;;;;;;;15.40;60.78;101222.94;4180334;28;20049;-53
2022/05/08 06:13:21;;;;;;;11.10;9.40;;;;;;;15.62;59.92;101226.56;4180542;28;20648;-53
2022/05/08 06:15:24;;;;;;;12.15;9.15;;;;;;;15.49;60.54;101231.75;4187666;28;20400;-55
2022/05/08 06:17:27;;;;;;;13.38;9.55;;;;;;;15.55;59.79;101233.53;4186306;28;20037;-54
2022/05/08 06:19:32;;;;;;;11.57;9.82;;;;;;;15.46;60.90;101238.72;4194255;28;20044;-53
2022/05/08 06:21:35;;;;;;;16.27;9.20;;;;;;;15.62;59.99;101237.94;4182307;28;20530;-53
2022/05/08 06:23:38;;;;;;;11.77;8.55;;;;;;;15.68;59.73;101243.22;4170604;28;20079;-55
2022/05/08 06:25:44;;;;;;;11.60;8.77;;;;;;;15.64;59.86;101236.22;4184994;28;20047;-54
2022/05/08 06:27:46;;;;;;;14.95;9.38;;;;;;;15.78;59.09;101238.03;4186936;28;20419;-54
2022/05/08 06:29:49;;;;;;;11.88;8.88;;;;;;;15.87;59.08;101238.09;4182686;28;20049;-53
2022/05/08 06:31:53;;;;;;;10.35;8.82;;;;;;;15.85;59.65;101238.09;4183598;28;20139;-55
2022/05/08 06:33:56;;;;;;;11.52;9.20;;;;;;;15.92;59.09;101241.63;4187001;28;20119;-53
2022/05/08 06:36:00;;;;;;;14.50;9.77;;;;;;;15.94;59.27;101245.13;4186911;28;20313;-53
2022/05/08 06:38:03;;;;;;;12.07;10.07;;;;;;;16.07;59.49;101238.19;4186233;28;20124;-53
2022/05/08 06:40:07;;;;;;;12.35;8.48;;;;;;;16.05;59.68;101243.44;4188611;28;20067;-54
2022/05/08 06:42:10;;;;;;;10.93;9.02;;;;;;;16.14;58.96;101246.97;4193225;28;20123;-55
2022/05/08 06:44:21;;;;;;;14.35;8.50;;;;;;;16.15;59.69;101244.34;4170298;28;20092;-55
2022/05/08 06:46:23;;;;;;;14.73;8.82;;;;;;;16.23;59.34;101260.13;4186624;28;20066;-54
2022/05/08 06:48:27;;;;;;;11.93;9.40;;;;;;;16.26;58.78;101260.13;4187084;28;20091;-54
2022/05/08 06:50:30;;;;;;;12.02;9.18;;;;;;;16.12;58.48;101256.56;4172349;28;20041;-53
2022/05/08 06:52:34;;;;;;;12.68;9.23;;;;;;;15.99;58.75;101268.75;4194485;28;20537;-54
2022/05/08 06:54:37;;;;;;;10.35;7.70;;;;;;;15.88;60.03;101264.31;4179013;28;20111;-53
2022/05/08 06:56:41;;;;;;;9.98;7.78;;;;;;;15.88;60.01;101264.31;4166495;28;20045;-55
2022/05/08 07:03:26;;;;;;;9.52;8.13;;;;;;;16.10;59.17;101266.19;4163522;28;20052;-55
2022/05/08 07:05:28;;;;;;;12.02;8.40;;;;;;;16.15;58.81;101270.59;4184952;28;20075;-55
2022/05/08 07:07:31;;;;;;;14.30;8.50;;;;;;;16.22;59.36;101272.38;4175933;28;20102;-55
2022/05/08 07:09:35;;;;;;;12.30;8.98;;;;;;;16.35;58.67;101268.06;4180946;28;20041;-55
2022/05/08 07:11:38;;;;;;;9.10;8.18;;;;;;;16.43;59.32;101265.44;4185921;28;20033;-54
2022/05/08 07:13:42;;;;;;;12.07;8.30;;;;;;;16.33;59.84;101267.16;4187023;28;20036;-54
2022/05/08 07:15:45;;;;;;;11.68;8.43;;;;;;;16.49;58.63;101272.47;4188753;28;20040;-55
2022/05/08 07:18:03;;;;;;;11.57;8.80;;;;;;;16.45;59.22;101268.94;4192579;28;20052;-54
2022/05/08 07:20:10;;;;;;;11.45;8.07;;;;;;;16.56;59.27;101268.97;4185713;28;20060;-53
2022/05/08 07:22:15;;;;;;;10.52;7.53;;;;;;;16.64;59.32;101275.09;4185951;28;20037;-53
2022/05/08 07:24:18;;;;;;;9.45;8.07;;;;;;;16.85;57.58;101271.66;4191247;28;20044;-55
2022/05/08 07:26:22;;;;;;;11.43;7.50;;;;;;;16.87;57.65;101272.56;4177186;28;20047;-54
2022/05/08 07:28:25;;;;;;;10.35;7.50;;;;;;;16.99;57.25;101271.69;4189716;28;20166;-55
2022/05/08 07:30:28;;;;;;;9.48;8.30;;;;;;;16.94;57.58;101281.34;4190332;28;20044;-54
2022/05/08 07:32:31;;;;;;;9.15;7.32;;;;;;;16.93;57.44;101274.31;4191223;28;20413;-55
2022/05/08 07:37:00;;;;;;;10.05;7.20;;;;;;;17.03;56.78;101272.59;4098936;28;20052;-55
2022/05/08 07:39:03;;;;;;;8.52;7.47;;;;;;;17.08;56.60;101270.81;4185021;28;20347;-55
2022/05/08 07:41:06;;;;;;;9.98;6.90;;;;;;;17.15;55.49;101272.56;4189376;28;20127;-53
2022/05/08 07:43:13;;;;;;;8.52;6.45;;;;;;;17.17;55.53;101275.19;4190700;28;20048;-54
2022/05/08 07:45:15;;;;;;;9.02;6.75;;;;;;;17.26;55.58;101281.34;4193701;28;20327;-55
2022/05/08 07:47:19;;;;;;;9.60;6.70;;;;;;;17.26;55.84;101276.09;4185143;28;20059;-54
2022/05/08 07:49:22;;;;;;;10.98;6.65;;;;;;;17.43;55.73;101281.34;4182326;28;20040;-54
2022/05/08 07:51:24;;;;;;;7.68;6.10;;;;;;;17.47;55.68;101281.34;4186235;28;20040;-55
2022/05/08 07:53:28;;;;;;;12.02;6.72;;;;;;;17.68;54.89;101278.66;4190426;28;20509;-54
2022/05/08 07:55:32;;;;;;;9.63;6.50;;;;;;;17.73;54.28;101281.28;4183991;28;20411;-53
2022/05/08 07:57:35;;;;;;;8.05;6.13;;;;;;;17.71;54.74;101283.94;4187404;28;20045;-55
2022/05/08 07:59:39;;;;;;;9.05;5.97;;;;;;;17.77;54.68;101289.16;4190543;28;20039;-55
2022/05/08 08:01:42;;;;;;;9.48;6.85;;;;;;;17.89;54.54;101290.88;4194658;28;20040;-55
2022/05/08 08:03:53;;;;;;;9.82;5.60;;;;;;;17.90;54.69;101283.88;4182531;28;20063;-55
2022/05/08 08:05:58;;;;;;;11.10;5.30;;;;;;;17.99;54.66;101288.25;4190431;28;20036;-55
2022/05/08 08:08:12;;;;;;;9.60;6.20;;;;;;;18.13;53.22;101286.44;4184398;28;20036;-55
2022/05/08 08:10:15;;;;;;;11.00;5.93;;;;;;;18.04;53.63;101282.09;4189326;28;20033;-55
2022/05/08 08:12:18;;;;;;;8.65;5.88;;;;;;;18.19;53.93;101283.78;4191414;28;20037;-55
2022/05/08 08:14:21;;;;;;;10.35;5.70;;;;;;;18.24;52.92;101289.06;4178408;28;20041;-55
2022/05/08 08:16:45;;;;;;;7.78;5.72;;;;;;;18.28;52.99;101296.94;4188262;28;20044;-54
2022/05/08 08:18:49;;;;;;;11.68;5.90;;;;;;;18.32;53.26;101292.50;4186247;28;20036;-55
2022/05/08 08:20:51;;;;;;;6.07;4.55;;;;;;;18.33;53.72;101289.00;4188503;28;20046;-54
2022/05/08 08:22:54;;;;;;;6.63;4.35;;;;;;;18.35;53.06;101281.97;4186477;28;20098;-55
2022/05/08 08:24:59;;;;;;;10.35;5.80;;;;;;;18.38;53.04;101295.09;4182571;28;20127;-54
2022/05/08 08:27:03;;;;;;;6.68;4.97;;;;;;;18.47;52.72;101291.56;4185548;28;20032;-55
2022/05/08 08:29:06;;;;;;;6.10;4.20;;;;;;;18.62;53.04;101290.63;4181521;28;20430;-53
2022/05/08 08:31:10;;;;;;;10.30;4.85;;;;;;;18.81;52.13;101302.78;4190433;28;20120;-53
2022/05/08 08:33:15;;;;;;;7.05;4.93;;;;;;;18.86;51.46;101293.97;4189170;28;20070;-54
2022/05/08 08:35:18;;;;;;;5.65;3.47;;;;;;;18.86;52.08;101291.34;4193278;28;20049;-55
2022/05/08 08:37:21;;;;;;;8.98;5.05;;;;;;;19.10;50.87;101291.19;4181609;28;20045;-54
2022/05/08 08:39:23;;;;;;;5.97;4.68;;;;;;;19.10;50.71;101290.31;4182106;28;20029;-56
2022/05/08 08:41:32;;;;;;;7.10;4.22;;;;;;;19.23;49.95;101288.44;4182288;28;20397;-56
2022/05/08 08:48:27;;;;;;;6.53;4.15;;;;;;;19.28;50.36;101282.25;4176127;28;20525;-56
2022/05/08 08:50:31;;;;;;;7.00;3.55;;;;;;;19.24;50.98;101284.94;4180478;28;20051;-56
2022/05/08 08:52:36;;;;;;;6.38;4.47;;;;;;;19.37;50.58;101286.56;4189646;28;20524;-56
2022/05/08 08:54:38;;;;;;;6.45;4.53;;;;;;;19.52;49.68;101285.53;4190126;28;20036;-55
2022/05/08 08:56:41;;;;;;;5.10;4.28;;;;;;;19.70;49.60;101289.78;4190301;28;20458;-54
2022/05/08 08:58:44;;;;;;;7.60;4.50;;;;;;;19.75;48.91;101290.59;4185082;28;20044;-56
2022/05/08 09:00:48;;;;;;;8.57;4.30;;;;;;;19.79;48.84;101284.44;4179390;28;20032;-56
2022/05/08 09:02:55;;;;;;;7.53;4.70;;;;;;;19.82;48.68;101292.31;4185919;28;20402;-56
2022/05/08 09:05:18;;;;;;;5.63;3.53;;;;;;;19.80;49.59;101283.56;4187142;28;20047;-56
2022/05/08 09:07:43;;;;;;;5.10;3.70;;;;;;;20.02;48.71;101285.97;4181735;28;20051;-56
2022/05/08 09:09:46;;;;;;;6.35;3.88;;;;;;;19.98;49.29;101290.38;4181649;28;20049;-57
2022/05/08 09:11:49;;;;;;;7.75;4.32;;;;;;;20.15;47.94;101298.13;4164265;28;20045;-57
2022/05/08 09:13:52;;;;;;;5.80;4.80;;;;;;;20.26;47.67;101297.97;4182180;28;20048;-58
2022/05/08 09:16:02;;;;;;;5.70;4.20;;;;;;;20.25;47.79;101293.56;4180478;28;20037;-57
2022/05/08 09:18:07;;;;;;;5.55;4.00;;;;;;;20.26;48.25;101291.81;4180664;28;20044;-58
2022/05/08 09:20:25;;;;;;;7.28;4.20;;;;;;;20.48;46.59;101295.06;4160984;28;20037;-58
2022/05/08 09:22:28;;;;;;;5.93;4.30;;;;;;;20.36;46.37;101291.66;4181160;28;20052;-58
2022/05/08 09:24:32;;;;;;;5.85;3.92;;;;;;;20.29;47.51;101295.28;4186124;28;20104;-63
2022/05/08 09:26:36;;;;;;;7.50;4.05;;;;;;;20.32;47.68;101295.25;4181554;28;20056;-62
2022/05/08 09:28:41;;;;;;;;;;;;;;;20.38;47.49;101294.28;4179459;28;20498;-63
2022/05/08 09:31:03;;;;;;;7.43;4.20;;;;;;;20.75;45.68;101289.41;4180388;28;19944;-63
2022/05/08 09:33:06;;;;;;;7.55;4.30;;;;;;;20.69;45.63;101283.31;4179129;28;20048;-62
2022/05/08 09:35:11;;;;;;;6.47;4.25;;;;;;;20.77;45.99;101289.38;4194089;28;20040;-60
2022/05/08 09:37:21;;;;;;;5.85;4.80;;;;;;;20.87;45.26;101282.19;4164306;28;20041;-63
2022/05/08 09:39:44;;;;;;;6.25;4.05;;;;;;;20.67;46.25;101286.00;4179281;28;20518;-63
2022/05/08 09:41:47;;;;;;;7.53;3.80;;;;;;;20.66;46.88;101278.06;4189028;28;20068;-62
2022/05/08 09:43:54;;;;;;;7.45;4.10;;;;;;;20.89;46.78;101281.25;4183364;28;20040;-62
2022/05/08 09:45:58;;;;;;;9.23;4.75;;;;;;;21.06;45.30;101274.84;4187953;28;20044;-62
2022/05/08 09:48:02;;;;;;;6.13;3.55;;;;;;;20.91;46.49;101275.97;4184018;28;20052;-61
2022/05/08 09:50:23;;;;;;;6.97;4.70;;;;;;;21.12;46.03;101276.53;4179567;28;20087;-59
2022/05/08 09:52:47;;;;;;;7.15;4.85;;;;;;;21.21;45.39;101274.56;4187669;28;20043;-59
2022/05/08 09:55:14;;;;;;;7.15;3.65;;;;;;;21.17;46.21;101269.38;4180637;28;20043;-59